Time;durP1;ratioP1;P1;durP2;ratioP2;P2;SDS_P1;SDS_P2;PMS_P1;PMS_P2;Temp;Humidity;BMP_temperature;BMP_pressure;BME280_temperature;BME280_humidity;BME280_pressure;Samples;Min_cycle;Max_cycle;Signal;HPM_P1;HPM_P2
2021/11/25 00:01:11;;;;;;;28.37;21.20;;;7.50;99.90;;;;;;4991811;28;20287;-81
2021/11/25 00:03:37;;;;;;;28.37;21.07;;;7.50;99.90;;;;;;4991470;28;20204;-83
2021/11/25 00:06:05;;;;;;;26.57;19.83;;;7.50;99.90;;;;;;5010352;28;20661;-82
2021/11/25 00:08:32;;;;;;;27.93;20.63;;;7.60;99.90;;;;;;5010202;28;20361;-83
2021/11/25 00:10:59;;;;;;;28.80;20.27;;;7.50;99.90;;;;;;5010184;28;20490;-83
2021/11/25 00:13:26;;;;;;;28.23;21.17;;;7.50;99.90;;;;;;5009649;28;20544;-80
2021/11/25 00:15:53;;;;;;;27.90;21.30;;;7.60;99.90;;;;;;5009506;28;20223;-80
2021/11/25 00:18:20;;;;;;;28.53;21.23;;;7.50;99.90;;;;;;5008172;28;20238;-78
2021/11/25 00:20:47;;;;;;;31.10;22.10;;;7.50;99.90;;;;;;5010085;28;20526;-80
2021/11/25 00:23:16;;;;;;;30.07;21.47;;;7.50;99.90;;;;;;5004497;28;20227;-83
2021/11/25 00:25:43;;;;;;;34.23;22.67;;;7.50;99.90;;;;;;4990402;28;20628;-83
2021/11/25 00:28:09;;;;;;;30.40;22.53;;;7.50;99.90;;;;;;4990873;28;20215;-83
2021/11/25 00:30:36;;;;;;;34.03;23.33;;;7.50;99.90;;;;;;4990290;28;20937;-80
2021/11/25 00:33:03;;;;;;;32.37;22.87;;;7.50;99.90;;;;;;4990052;28;20207;-80
2021/11/25 00:35:30;;;;;;;35.87;23.93;;;7.50;99.90;;;;;;4990643;28;20219;-84
2021/11/25 00:37:57;;;;;;;32.13;24.07;;;7.50;99.90;;;;;;4989316;28;20208;-81
2021/11/25 00:40:25;;;;;;;33.80;24.17;;;7.50;99.90;;;;;;4989470;28;20627;-79
2021/11/25 00:42:52;;;;;;;33.67;23.10;;;7.50;99.90;;;;;;4989920;28;20216;-80
2021/11/25 00:45:19;;;;;;;35.27;25.23;;;7.50;99.90;;;;;;4989297;28;20235;-81
2021/11/25 00:47:47;;;;;;;34.30;24.00;;;7.50;99.90;;;;;;4989628;28;20239;-80
2021/11/25 00:50:18;;;;;;;32.10;23.40;;;7.50;99.90;;;;;;4990257;28;20196;-82
2021/11/25 00:52:45;;;;;;;35.70;25.20;;;7.50;99.90;;;;;;4988598;28;20207;-83
2021/11/25 00:55:12;;;;;;;34.57;25.60;;;7.50;99.90;;;;;;4989319;28;20206;-81
2021/11/25 00:57:40;;;;;;;35.27;24.77;;;7.50;99.90;;;;;;4989192;28;20536;-79
2021/11/25 01:00:10;;;;;;;35.17;24.87;;;7.50;99.90;;;;;;5005501;28;20219;-81
2021/11/25 01:02:37;;;;;;;38.60;25.97;;;7.50;99.90;;;;;;5007677;28;20219;-79
2021/11/25 01:05:05;;;;;;;39.03;25.23;;;7.50;99.90;;;;;;5009148;28;20222;-81
2021/11/25 01:07:32;;;;;;;42.60;28.90;;;7.50;99.90;;;;;;5010576;28;20218;-81
2021/11/25 01:09:59;;;;;;;36.13;26.20;;;7.50;99.90;;;;;;5010730;28;20211;-82
2021/11/25 01:12:28;;;;;;;39.10;27.37;;;7.50;99.90;;;;;;5009664;28;21010;-82
2021/11/25 01:14:56;;;;;;;39.50;27.20;;;7.50;99.90;;;;;;5010486;28;20223;-83
2021/11/25 01:17:23;;;;;;;40.80;27.70;;;7.50;99.90;;;;;;5010556;28;20612;-82
2021/11/25 01:19:50;;;;;;;37.03;26.07;;;7.50;99.90;;;;;;4996407;28;20208;-83
2021/11/25 01:22:17;;;;;;;39.33;25.97;;;7.50;99.90;;;;;;4989420;28;20215;-83
2021/11/25 01:24:44;;;;;;;38.93;27.20;;;7.40;99.90;;;;;;4987928;28;20216;-83
2021/11/25 01:27:11;;;;;;;40.63;26.60;;;7.40;99.90;;;;;;4992948;28;20207;-82
2021/11/25 01:29:38;;;;;;;42.67;28.93;;;7.50;99.90;;;;;;4990463;28;20208;-82
2021/11/25 01:32:07;;;;;;;42.40;29.07;;;7.40;99.90;;;;;;5006229;28;20207;-82
2021/11/25 01:34:34;;;;;;;43.23;29.20;;;7.50;99.90;;;;;;5007308;28;20207;-82
2021/11/25 01:37:01;;;;;;;42.07;29.17;;;7.40;99.90;;;;;;4990789;28;20192;-82
2021/11/25 01:39:28;;;;;;;43.70;29.10;;;7.40;99.90;;;;;;4989750;28;20203;-82
2021/11/25 01:41:55;;;;;;;40.10;27.93;;;7.40;99.90;;;;;;4989728;28;20199;-81
2021/11/25 01:44:22;;;;;;;50.77;32.07;;;7.50;99.90;;;;;;5004512;28;20211;-82
2021/11/25 01:46:49;;;;;;;48.13;30.13;;;7.50;99.90;;;;;;5008280;28;20234;-82
2021/11/25 01:49:17;;;;;;;50.77;31.20;;;7.40;99.90;;;;;;5007860;28;20204;-83
2021/11/25 01:51:44;;;;;;;48.57;29.87;;;7.40;99.90;;;;;;5007298;28;20207;-82
2021/11/25 01:54:11;;;;;;;50.17;31.40;;;7.40;99.90;;;;;;5008530;28;20218;-82
2021/11/25 01:56:38;;;;;;;49.73;31.73;;;7.40;99.90;;;;;;5008762;28;20239;-83
2021/11/25 01:59:05;;;;;;;44.30;29.30;;;7.40;99.90;;;;;;5009981;28;20199;-81
2021/11/25 02:01:34;;;;;;;54.73;33.77;;;7.40;99.90;;;;;;5007644;28;20199;-83
2021/11/25 02:04:02;;;;;;;57.17;35.00;;;7.40;99.90;;;;;;5004436;28;20218;-83
2021/11/25 02:06:31;;;;;;;54.17;33.50;;;7.40;99.90;;;;;;5006140;28;20231;-83
2021/11/25 02:08:59;;;;;;;54.77;34.20;;;7.40;99.90;;;;;;4990246;28;20212;-82
2021/11/25 02:11:26;;;;;;;52.60;33.17;;;7.40;99.90;;;;;;4990703;28;20221;-83
2021/11/25 02:13:52;;;;;;;55.40;33.37;;;7.40;99.90;;;;;;4990575;28;20207;-82
2021/11/25 02:16:19;;;;;;;53.47;32.70;;;7.40;99.90;;;;;;5007247;28;20282;-81
2021/11/25 02:18:47;;;;;;;56.27;33.43;;;7.40;99.90;;;;;;5010365;28;20195;-83
2021/11/25 02:21:15;;;;;;;54.77;34.87;;;7.40;99.90;;;;;;5002125;28;20208;-83
2021/11/25 02:23:42;;;;;;;50.17;32.20;;;7.40;99.90;;;;;;4990853;28;20231;-83
2021/11/25 02:26:10;;;;;;;50.63;33.10;;;7.40;99.90;;;;;;4999884;28;20230;-83
2021/11/25 02:28:40;;;;;;;57.07;35.67;;;7.40;99.90;;;;;;5009764;28;20663;-83
2021/11/25 02:31:08;;;;;;;58.97;35.77;;;7.40;99.90;;;;;;5000289;28;20319;-83
2021/11/25 02:33:35;;;;;;;55.07;33.03;;;7.40;99.90;;;;;;4990252;28;20223;-83
2021/11/25 02:36:02;;;;;;;60.17;36.87;;;7.40;99.90;;;;;;4991182;28;20211;-83
2021/11/25 02:38:30;;;;;;;56.20;36.03;;;7.40;99.90;;;;;;4990165;28;20200;-84
2021/11/25 02:40:59;;;;;;;58.50;35.27;;;7.40;99.90;;;;;;5009365;28;20221;-83
2021/11/25 02:43:28;;;;;;;64.00;35.63;;;7.40;99.90;;;;;;5010215;28;20207;-84
2021/11/25 02:45:57;;;;;;;52.53;33.37;;;7.40;99.90;;;;;;5009607;28;20230;-84
2021/11/25 02:48:26;;;;;;;57.90;34.87;;;7.30;99.90;;;;;;5009273;28;20234;-82
2021/11/25 02:50:54;;;;;;;53.80;32.50;;;7.30;99.90;;;;;;5009418;28;20208;-84
2021/11/25 02:53:24;;;;;;;60.60;36.17;;;7.30;99.90;;;;;;5009444;28;20211;-85
2021/11/25 02:55:55;;;;;;;53.23;32.13;;;7.30;99.90;;;;;;5006968;28;20243;-85
2021/11/25 02:58:21;;;;;;;53.80;34.87;;;7.30;99.90;;;;;;5008532;28;20206;-85
2021/11/25 03:00:51;;;;;;;57.10;35.00;;;7.30;99.90;;;;;;5010333;28;20199;-84
2021/11/25 03:03:21;;;;;;;61.50;35.23;;;7.30;99.90;;;;;;5006132;28;20736;-84
2021/11/25 03:05:50;;;;;;;56.37;34.63;;;7.30;99.90;;;;;;5009651;28;20227;-82
2021/11/25 03:08:19;;;;;;;58.23;35.13;;;7.30;99.90;;;;;;5010510;28;20192;-84
2021/11/25 03:10:49;;;;;;;68.13;38.13;;;7.30;99.90;;;;;;4999052;28;20211;-84
2021/11/25 03:13:20;;;;;;;62.17;35.53;;;7.30;99.90;;;;;;4989983;28;20262;-83
2021/11/25 03:15:47;;;;;;;62.10;35.73;;;7.30;99.90;;;;;;4990411;28;20208;-83
2021/11/25 03:18:14;;;;;;;64.40;36.57;;;7.30;99.90;;;;;;4996812;28;20247;-82
2021/11/25 03:20:44;;;;;;;68.77;36.93;;;7.30;99.90;;;;;;4994055;28;20218;-83
2021/11/25 03:23:13;;;;;;;62.80;35.00;;;7.30;99.90;;;;;;4994347;28;20212;-83
2021/11/25 03:25:44;;;;;;;71.90;39.23;;;7.20;99.90;;;;;;4994466;28;20620;-83
2021/11/25 03:28:11;;;;;;;71.63;38.93;;;7.30;99.90;;;;;;4994812;28;20684;-84
2021/11/25 03:30:40;;;;;;;69.07;38.40;;;7.20;99.90;;;;;;4994788;28;20227;-83
2021/11/25 03:33:10;;;;;;;67.67;37.80;;;7.20;99.90;;;;;;4994986;28;20322;-84
2021/11/25 03:35:38;;;;;;;69.30;38.83;;;7.30;99.90;;;;;;4993770;28;20204;-83
2021/11/25 03:38:06;;;;;;;65.63;36.63;;;7.20;99.90;;;;;;4994590;28;20211;-85
2021/11/25 03:40:33;;;;;;;74.40;39.13;;;7.20;99.90;;;;;;5002710;28;20207;-83
2021/11/25 03:43:00;;;;;;;72.30;38.37;;;7.20;99.90;;;;;;5013749;28;20249;-84
2021/11/25 03:45:27;;;;;;;71.30;39.00;;;7.20;99.90;;;;;;5013298;28;20208;-82
2021/11/25 03:47:56;;;;;;;75.50;39.80;;;7.20;99.90;;;;;;4997723;28;20621;-83
2021/11/25 03:50:23;;;;;;;69.40;37.10;;;7.20;99.90;;;;;;4992894;28;20193;-82
2021/11/25 03:52:50;;;;;;;72.40;38.87;;;7.20;99.90;;;;;;4994053;28;20204;-83
2021/11/25 03:55:18;;;;;;;72.13;38.03;;;7.20;99.90;;;;;;4992872;28;20197;-82
2021/11/25 03:57:46;;;;;;;67.33;37.70;;;7.20;99.90;;;;;;4992501;28;20922;-80
2021/11/25 04:00:15;;;;;;;68.47;37.70;;;7.20;99.90;;;;;;4991276;28;20219;-82
2021/11/25 04:02:43;;;;;;;77.00;38.80;;;7.20;99.90;;;;;;4991241;28;20207;-84
2021/11/25 04:05:13;;;;;;;77.80;38.17;;;7.20;99.90;;;;;;4991127;28;20539;-81
2021/11/25 04:07:40;;;;;;;74.83;38.90;;;7.20;99.90;;;;;;4999415;28;20227;-81
2021/11/25 04:10:10;;;;;;;73.23;37.77;;;7.20;99.90;;;;;;5009947;28;20498;-84
2021/11/25 04:12:36;;;;;;;71.07;38.57;;;7.20;99.90;;;;;;5009108;28;20211;-83
2021/11/25 04:15:04;;;;;;;71.37;37.47;;;7.20;99.90;;;;;;5010272;28;20461;-80
2021/11/25 04:17:31;;;;;;;69.47;36.70;;;7.20;99.90;;;;;;5008598;28;20207;-84
2021/11/25 04:20:01;;;;;;;78.87;40.47;;;7.20;99.90;;;;;;5011670;28;20207;-83
2021/11/25 04:22:29;;;;;;;78.73;39.33;;;7.20;99.90;;;;;;4991600;28;20211;-80
2021/11/25 04:24:56;;;;;;;82.20;40.20;;;7.20;99.90;;;;;;4991427;28;20231;-81
2021/11/25 04:27:23;;;;;;;78.20;38.43;;;7.10;99.90;;;;;;5009254;28;20277;-84
2021/11/25 04:29:57;;;;;;;72.40;37.70;;;7.10;99.90;;;;;;5008631;28;20207;-83
2021/11/25 04:37:55;;;;;;;67.80;34.57;;;7.20;99.90;;;;;;4991875;28;20199;-84
2021/11/25 04:40:22;;;;;;;62.20;34.33;;;7.10;99.90;;;;;;4992632;28;20230;-83
2021/11/25 04:42:49;;;;;;;65.87;35.57;;;7.20;99.90;;;;;;4992719;28;20196;-83
2021/11/25 04:45:15;;;;;;;69.50;35.73;;;7.10;99.90;;;;;;4991830;28;20211;-83
2021/11/25 04:47:42;;;;;;;66.90;36.83;;;7.20;99.90;;;;;;4991723;28;20227;-82
2021/11/25 04:50:10;;;;;;;81.73;39.77;;;7.10;99.90;;;;;;4992305;28;20211;-84
2021/11/25 04:52:37;;;;;;;70.10;36.17;;;7.10;99.90;;;;;;4991937;28;20215;-83
2021/11/25 04:55:06;;;;;;;82.63;39.07;;;7.10;99.90;;;;;;5004905;28;20240;-84
2021/11/25 04:57:33;;;;;;;75.67;39.23;;;7.20;99.90;;;;;;4990839;28;20236;-82
2021/11/25 05:00:00;;;;;;;74.80;38.83;;;7.10;99.90;;;;;;5001474;28;20515;-83
2021/11/25 05:02:26;;;;;;;73.97;38.37;;;7.10;99.90;;;;;;5010702;28;20203;-82
2021/11/25 05:04:53;;;;;;;85.37;40.67;;;7.20;99.90;;;;;;5010999;28;20200;-81
2021/11/25 05:07:20;;;;;;;79.47;40.97;;;7.20;99.90;;;;;;5009627;28;20241;-83
2021/11/25 05:09:48;;;;;;;79.40;39.97;;;7.10;99.90;;;;;;5010808;28;20211;-83
2021/11/25 05:12:16;;;;;;;80.13;40.13;;;7.10;99.90;;;;;;5008988;28;20211;-84
2021/11/25 05:14:43;;;;;;;79.77;40.07;;;7.10;99.90;;;;;;5010170;28;20196;-84
2021/11/25 05:17:09;;;;;;;81.47;41.20;;;7.10;99.90;;;;;;5011160;28;20214;-85
2021/11/25 05:19:37;;;;;;;69.67;36.40;;;7.10;99.90;;;;;;5009823;28;20565;-83
2021/11/25 05:22:04;;;;;;;74.07;37.33;;;7.10;99.90;;;;;;5011124;28;20781;-83
2021/11/25 05:24:31;;;;;;;75.20;38.27;;;7.10;99.90;;;;;;5010594;28;20227;-81
2021/11/25 05:26:58;;;;;;;79.13;39.93;;;7.10;99.90;;;;;;5006276;28;20601;-82
2021/11/25 05:29:26;;;;;;;68.57;34.60;;;7.10;99.90;;;;;;5007636;28;20214;-84
2021/11/25 05:31:53;;;;;;;72.90;36.67;;;7.10;99.90;;;;;;5006407;28;20211;-79
2021/11/25 05:34:20;;;;;;;78.67;39.83;;;7.20;99.90;;;;;;5006447;28;20207;-83
2021/11/25 05:36:47;;;;;;;67.87;35.70;;;7.20;99.90;;;;;;5007494;28;20525;-83
2021/11/25 05:39:14;;;;;;;70.77;37.50;;;7.20;99.90;;;;;;5008287;28;20203;-80
2021/11/25 05:41:41;;;;;;;77.60;38.17;;;7.20;99.90;;;;;;5002620;28;20199;-79
2021/11/25 05:44:09;;;;;;;70.27;35.13;;;7.20;99.90;;;;;;4988830;28;20596;-80
2021/11/25 05:46:38;;;;;;;70.93;35.73;;;7.20;99.90;;;;;;4988667;28;20231;-82
2021/11/25 05:49:05;;;;;;;66.97;34.47;;;7.20;99.90;;;;;;4988217;28;20204;-82
2021/11/25 05:51:31;;;;;;;64.27;32.80;;;7.20;99.90;;;;;;4988201;28;20212;-80
2021/11/25 05:53:59;;;;;;;62.67;33.50;;;7.20;99.90;;;;;;4988137;28;20298;-81
2021/11/25 05:56:25;;;;;;;70.50;35.67;;;7.20;99.90;;;;;;4987523;28;20546;-80
2021/11/25 05:58:54;;;;;;;66.03;34.10;;;7.20;99.90;;;;;;4988004;28;20223;-81
2021/11/25 06:01:23;;;;;;;36.63;19.37;;;7.20;99.90;;;;;;4986322;28;20200;-81
2021/11/25 06:03:53;;;;;;;25.40;13.23;;;7.30;99.90;;;;;;4988467;28;20270;-80
2021/11/25 06:06:20;;;;;;;14.43;9.47;;;7.40;99.90;;;;;;4988316;28;20817;-82
2021/11/25 06:08:47;;;;;;;10.67;7.50;;;7.60;99.90;;;;;;4999142;28;20216;-83
2021/11/25 06:11:13;;;;;;;11.17;6.73;;;7.70;99.90;;;;;;5008559;28;20210;-80
2021/11/25 06:13:40;;;;;;;13.87;7.07;;;7.90;99.90;;;;;;5008521;28;20889;-80
2021/11/25 06:16:07;;;;;;;11.90;7.43;;;8.00;99.90;;;;;;5007846;28;20196;-81
2021/11/25 06:18:34;;;;;;;11.00;6.90;;;8.10;99.90;;;;;;5009184;28;20199;-82
2021/11/25 06:21:03;;;;;;;14.30;9.50;;;8.10;99.90;;;;;;5009040;28;20203;-83
2021/11/25 06:23:30;;;;;;;13.70;10.00;;;8.30;99.90;;;;;;5005045;28;20552;-79
2021/11/25 06:25:57;;;;;;;11.23;8.83;;;8.30;99.90;;;;;;5007483;28;20211;-81
2021/11/25 06:28:24;;;;;;;12.17;9.13;;;8.40;99.90;;;;;;5008836;28;20266;-82
2021/11/25 06:30:51;;;;;;;12.27;8.67;;;8.50;99.90;;;;;;5007354;28;20492;-81
2021/11/25 06:33:18;;;;;;;13.53;9.20;;;8.50;99.90;;;;;;5008899;28;20210;-83
2021/11/25 06:35:45;;;;;;;10.40;8.00;;;8.60;99.90;;;;;;4999924;28;20215;-82
2021/11/25 06:38:13;;;;;;;11.43;8.70;;;8.60;99.90;;;;;;4988989;28;20200;-82
2021/11/25 06:40:40;;;;;;;9.87;7.17;;;8.60;99.90;;;;;;4987924;28;20201;-80
2021/11/25 06:43:08;;;;;;;6.30;5.67;;;8.60;99.90;;;;;;4989274;28;20200;-84
2021/11/25 06:45:36;;;;;;;8.20;5.23;;;8.60;99.90;;;;;;4989274;28;20200;-82
2021/11/25 06:48:04;;;;;;;8.57;4.83;;;8.60;99.90;;;;;;4989981;28;20228;-83
2021/11/25 06:50:31;;;;;;;6.37;4.57;;;8.60;99.90;;;;;;5005773;28;20211;-82
2021/11/25 06:52:58;;;;;;;5.90;4.10;;;8.60;99.90;;;;;;5007364;28;20644;-81
2021/11/25 06:55:26;;;;;;;6.73;3.87;;;8.60;99.90;;;;;;4986047;28;20801;-82
2021/11/25 06:57:54;;;;;;;4.90;2.47;;;8.70;99.90;;;;;;4987768;28;20203;-81
2021/11/25 07:00:23;;;;;;;8.63;1.90;;;8.70;99.90;;;;;;4987752;28;20196;-80
2021/11/25 07:02:52;;;;;;;3.57;1.90;;;8.80;99.90;;;;;;4988296;28;20726;-81
2021/11/25 07:05:20;;;;;;;6.70;1.73;;;8.80;99.90;;;;;;4987458;28;20207;-83
2021/11/25 07:07:47;;;;;;;5.07;1.57;;;8.80;99.90;;;;;;5000432;28;20222;-81
2021/11/25 07:10:14;;;;;;;7.13;1.77;;;8.70;99.90;;;;;;5006024;28;20211;-80
2021/11/25 07:12:43;;;;;;;9.17;2.10;;;8.70;99.90;;;;;;5006784;28;20203;-82
2021/11/25 07:15:11;;;;;;;6.10;1.40;;;8.60;99.90;;;;;;5007505;28;20210;-83
2021/11/25 07:17:38;;;;;;;7.73;1.43;;;8.60;99.90;;;;;;5007627;28;20210;-82
2021/11/25 07:20:07;;;;;;;3.33;1.30;;;8.50;99.90;;;;;;5006605;28;20206;-82
2021/11/25 07:22:35;;;;;;;7.80;1.30;;;8.50;99.90;;;;;;4988005;28;20207;-81
2021/11/25 07:25:02;;;;;;;10.13;1.50;;;8.50;99.90;;;;;;4988826;28;20222;-80
2021/11/25 07:27:29;;;;;;;6.13;1.40;;;8.40;99.90;;;;;;5007287;28;20219;-82
2021/11/25 07:29:57;;;;;;;5.60;1.80;;;8.50;99.90;;;;;;4993080;28;20218;-83
2021/11/25 07:32:25;;;;;;;4.87;1.93;;;8.40;99.90;;;;;;4987084;28;20212;-81
2021/11/25 07:34:53;;;;;;;4.90;1.77;;;8.40;99.90;;;;;;4988080;28;20270;-82
2021/11/25 07:37:20;;;;;;;6.53;1.40;;;8.40;99.90;;;;;;4987983;28;20490;-83
2021/11/25 07:39:47;;;;;;;10.57;2.03;;;8.50;99.90;;;;;;4988019;28;20242;-83
2021/11/25 07:42:13;;;;;;;7.87;1.40;;;8.40;99.90;;;;;;4989028;28;20208;-82
2021/11/25 07:44:41;;;;;;;7.77;1.70;;;8.50;99.90;;;;;;4987993;28;20227;-82
2021/11/25 07:47:10;;;;;;;10.00;1.77;;;8.50;99.90;;;;;;4988715;28;20223;-81
2021/11/25 07:49:38;;;;;;;8.13;2.37;;;8.50;99.90;;;;;;4988547;28;20212;-81
2021/11/25 07:52:05;;;;;;;6.20;1.77;;;8.50;99.90;;;;;;4989153;28;20211;-81
2021/11/25 07:54:32;;;;;;;8.67;2.80;;;8.50;99.90;;;;;;4986763;28;20211;-82
2021/11/25 07:57:00;;;;;;;9.53;4.57;;;8.50;99.90;;;;;;5000885;28;20234;-83
2021/11/25 07:59:27;;;;;;;9.67;6.23;;;8.50;99.90;;;;;;5009436;28;20290;-86
2021/11/25 08:01:54;;;;;;;12.03;5.97;;;8.50;99.90;;;;;;5009603;28;20209;-87
2021/11/25 08:04:22;;;;;;;11.17;4.97;;;8.40;99.90;;;;;;5006613;28;20581;-85
2021/11/25 08:06:49;;;;;;;11.33;5.30;;;8.40;99.90;;;;;;4994299;28;20203;-83
2021/11/25 08:09:16;;;;;;;15.37;4.27;;;8.40;99.90;;;;;;4994039;28;20913;-85
2021/11/25 08:11:43;;;;;;;15.43;2.80;;;8.40;99.90;;;;;;4994067;28;20219;-86
2021/11/25 08:14:10;;;;;;;10.37;1.57;;;8.40;99.90;;;;;;4993435;28;20604;-88
2021/11/25 08:16:38;;;;;;;7.20;1.90;;;8.40;99.90;;;;;;5011817;28;20218;-87
2021/11/25 08:19:05;;;;;;;11.90;2.03;;;8.40;99.90;;;;;;5013454;28;20203;-86
2021/11/25 08:21:34;;;;;;;9.57;2.37;;;8.40;99.90;;;;;;5022876;28;20214;-84
2021/11/25 08:24:01;;;;;;;9.47;1.70;;;8.50;99.90;;;;;;4997313;28;20231;-82
2021/11/25 08:26:28;;;;;;;11.00;2.43;;;8.50;99.90;;;;;;5008899;28;20218;-81
2021/11/25 08:28:55;;;;;;;9.10;1.50;;;8.50;99.90;;;;;;5009205;28;20686;-83
2021/11/25 08:31:21;;;;;;;10.73;1.63;;;8.50;99.90;;;;;;5008301;28;20226;-82
2021/11/25 08:33:48;;;;;;;7.87;1.80;;;8.50;99.90;;;;;;5010621;28;20203;-79
2021/11/25 08:36:15;;;;;;;10.33;2.30;;;8.50;99.90;;;;;;5008507;28;20218;-81
2021/11/25 22:56:58;;;;;;;10.67;2.40;;;7.00;99.90;;;;;;2042995;23;20644;-82
2021/11/25 22:59:25;;;;;;;5.27;1.80;;;7.10;99.90;;;;;;4989199;28;20418;-88
2021/11/25 23:01:52;;;;;;;4.83;1.13;;;7.10;99.90;;;;;;4989605;28;20210;-87
2021/11/25 23:04:19;;;;;;;6.57;1.80;;;7.00;99.90;;;;;;4990295;28;20214;-87
2021/11/25 23:06:48;;;;;;;5.40;1.20;;;7.10;99.90;;;;;;4987869;28;20208;-87
2021/11/25 23:09:14;;;;;;;5.53;1.10;;;7.10;99.90;;;;;;4990430;28;20290;-87
2021/11/25 23:11:42;;;;;;;4.70;1.40;;;7.10;99.90;;;;;;4991253;28;20757;-88
2021/11/25 23:14:11;;;;;;;6.83;1.40;;;7.10;99.90;;;;;;4991013;28;20204;-88
2021/11/25 23:16:37;;;;;;;5.60;1.10;;;7.10;99.90;;;;;;4989733;28;20208;-88
2021/11/25 23:19:05;;;;;;;9.73;1.60;;;7.10;99.90;;;;;;4991201;28;20214;-86
2021/11/25 23:21:32;;;;;;;7.50;1.50;;;7.10;99.90;;;;;;4991995;28;20580;-86
2021/11/25 23:23:59;;;;;;;5.40;1.43;;;7.10;99.90;;;;;;4991337;28;20198;-83
2021/11/25 23:26:26;;;;;;;9.37;1.80;;;7.10;99.90;;;;;;4990709;28;20192;-87
2021/11/25 23:28:52;;;;;;;11.40;1.43;;;7.10;99.90;;;;;;4972396;28;20232;-87
2021/11/25 23:31:21;;;;;;;6.70;1.33;;;7.10;99.90;;;;;;4971696;28;20231;-87
2021/11/25 23:33:47;;;;;;;7.90;1.70;;;7.10;99.90;;;;;;4973387;28;20203;-87
2021/11/25 23:36:14;;;;;;;6.27;1.37;;;7.10;99.90;;;;;;4975495;28;20684;-84
2021/11/25 23:38:41;;;;;;;7.53;2.00;;;7.20;99.90;;;;;;4976007;28;20203;-84
2021/11/25 23:41:08;;;;;;;8.10;1.30;;;7.30;99.90;;;;;;4982985;28;20203;-85
2021/11/25 23:43:35;;;;;;;6.17;1.10;;;7.40;99.90;;;;;;4994274;28;20532;-86
2021/11/25 23:46:03;;;;;;;8.90;1.30;;;7.40;99.90;;;;;;4995409;28;20199;-90
2021/11/25 23:48:38;;;;;;;4.83;1.23;;;7.40;99.90;;;;;;4993971;28;20220;-87
2021/11/25 23:51:23;;;;;;;4.87;1.90;;;7.40;99.90;;;;;;4993311;28;20296;-88
2021/11/25 23:53:50;;;;;;;6.30;1.20;;;7.40;99.90;;;;;;4994666;28;20215;-88
2021/11/25 23:56:18;;;;;;;7.57;1.80;;;7.30;99.90;;;;;;4994125;28;20204;-80
2021/11/25 23:58:45;;;;;;;6.03;1.10;;;7.30;99.90;;;;;;4993975;28;20235;-87
